Terminal Aerodrome Forecast
Issued by NWS

Home | Current Version | Previous Version | Text Only | Print | Product List | Glossary On
Versions: 1 2 3 4 5 6 7 8 9 10 11 12 13 14 15 16 17 18 19 20 21 22 23 24 25 26 27 28 29 30 31 32 33 34 35 36 37
000
FTUS44 KHGX 011921 AAA
TAFLBX
TAF AMD
KLBX 011921Z 0119/0218 18011KT P6SM VCTS SCT045CB BKN120
      TEMPO 0119/0121 VRB15G25KT 2SM +TSRA OVC040CB
     FM020200 18005KT P6SM FEW025 SCT120
     FM020900 18003KT P6SM MIFG SCT250=

USA.gov is the U.S. government's official web portal to all federal, state and local government web resources and services.